Time;durP1;ratioP1;P1;durP2;ratioP2;P2;SDS_P1;SDS_P2;PMS_P1;PMS_P2;Temp;Humidity;BMP_temperature;BMP_pressure;BME280_temperature;BME280_humidity;BME280_pressure;Samples;Min_cycle;Max_cycle;Signal;HPM_P1;HPM_P2
2022/08/09 00:02:28;;;;;;;5.20;3.03;;;21.90;99.90;;;;;;5229212;28;20402;-76
2022/08/09 00:04:59;;;;;;;4.10;3.17;;;22.00;99.90;;;;;;5229424;28;20025;-76
2022/08/09 00:07:30;;;;;;;4.15;3.30;;;22.10;99.90;;;;;;5229251;28;20036;-76
2022/08/09 00:10:02;;;;;;;5.57;3.80;;;22.10;99.90;;;;;;5229048;28;20033;-75
2022/08/09 00:12:32;;;;;;;5.45;3.33;;;22.20;99.90;;;;;;5229372;28;20032;-76
2022/08/09 00:15:04;;;;;;;6.30;3.90;;;22.20;99.90;;;;;;5229335;28;20384;-76
2022/08/09 00:17:35;;;;;;;5.85;3.70;;;22.30;99.90;;;;;;5229475;28;20465;-76
2022/08/09 00:20:06;;;;;;;4.93;3.63;;;22.30;99.90;;;;;;5229354;28;20036;-76
2022/08/09 00:22:37;;;;;;;6.65;3.47;;;22.10;99.90;;;;;;5228030;28;20449;-76
2022/08/09 00:25:08;;;;;;;5.68;3.78;;;22.30;99.90;;;;;;5229190;28;20071;-76
2022/08/09 00:27:39;;;;;;;6.28;3.88;;;22.30;99.90;;;;;;5229007;28;20040;-75
2022/08/09 00:30:10;;;;;;;6.38;4.50;;;22.40;99.90;;;;;;5228387;28;20053;-76
2022/08/09 00:32:41;;;;;;;6.47;4.43;;;22.60;99.90;;;;;;5228934;28;20067;-76
2022/08/09 00:35:11;;;;;;;6.47;3.97;;;22.70;99.90;;;;;;5228914;28;20072;-75
2022/08/09 00:37:42;;;;;;;4.32;3.72;;;22.50;99.90;;;;;;5228642;28;20025;-76
2022/08/09 00:40:13;;;;;;;5.07;3.58;;;22.50;99.90;;;;;;5228627;28;20468;-76
2022/08/09 00:42:44;;;;;;;6.63;3.85;;;22.60;99.90;;;;;;5228742;28;20021;-76
2022/08/09 00:45:15;;;;;;;5.97;3.78;;;22.80;99.90;;;;;;5228530;28;20021;-76
2022/08/09 00:47:46;;;;;;;4.93;3.97;;;22.80;99.90;;;;;;5228432;28;20043;-76
2022/08/09 00:50:17;;;;;;;5.00;3.80;;;22.70;99.90;;;;;;5228582;28;20041;-76
2022/08/09 00:52:48;;;;;;;5.22;4.03;;;22.90;99.90;;;;;;5228455;28;20380;-76
2022/08/09 00:55:19;;;;;;;7.07;4.03;;;23.00;99.90;;;;;;5228363;28;20051;-76
2022/08/09 00:57:50;;;;;;;6.22;4.05;;;23.10;99.90;;;;;;5228219;28;20027;-76
2022/08/09 01:00:21;;;;;;;7.78;3.88;;;23.10;99.90;;;;;;5226823;28;20033;-76
2022/08/09 01:03:07;;;;;;;5.97;4.03;;;23.20;99.90;;;;;;5228305;28;20556;-76
2022/08/09 01:05:59;;;;;;;7.28;4.10;;;23.10;99.90;;;;;;5228178;28;20037;-76
2022/08/09 01:08:39;;;;;;;4.32;3.72;;;23.00;99.90;;;;;;5227953;28;20040;-75
2022/08/09 01:11:32;;;;;;;5.88;3.58;;;22.90;99.90;;;;;;5227959;28;20381;-76
2022/08/09 01:14:16;;;;;;;5.05;3.55;;;22.70;99.90;;;;;;5228128;28;20025;-76
2022/08/09 01:16:51;;;;;;;5.88;4.30;;;22.80;99.90;;;;;;5227882;28;20686;-76
2022/08/09 01:19:48;;;;;;;4.40;4.00;;;22.90;99.90;;;;;;5227736;28;20074;-76
2022/08/09 01:22:44;;;;;;;5.55;4.18;;;22.70;99.90;;;;;;5227743;28;20079;-76
2022/08/09 01:25:19;;;;;;;8.27;4.00;;;22.70;99.90;;;;;;5227769;28;20021;-76
2022/08/09 01:27:53;;;;;;;5.43;4.20;;;22.60;99.90;;;;;;5227574;28;20119;-76
2022/08/09 01:30:26;;;;;;;7.03;5.38;;;22.60;99.90;;;;;;5227078;28;20061;-75
2022/08/09 01:32:58;;;;;;;5.07;4.43;;;22.90;99.90;;;;;;5227462;28;20021;-75
2022/08/09 01:35:48;;;;;;;5.43;4.30;;;22.70;99.90;;;;;;5227434;28;20055;-75
2022/08/09 01:38:24;;;;;;;5.93;4.15;;;22.70;99.90;;;;;;5227366;28;20545;-75
2022/08/09 01:41:01;;;;;;;8.20;5.22;;;22.90;99.90;;;;;;5227574;28;20457;-75
2022/08/09 01:43:35;;;;;;;6.32;3.78;;;22.90;99.90;;;;;;5227350;28;20028;-75
2022/08/09 01:46:08;;;;;;;5.63;4.00;;;22.80;99.90;;;;;;5227340;28;20025;-75
2022/08/09 01:48:41;;;;;;;5.68;4.45;;;22.70;99.90;;;;;;5227392;28;20060;-76
2022/08/09 01:51:14;;;;;;;4.68;3.97;;;22.50;99.90;;;;;;5227118;28;20099;-75
2022/08/09 01:53:46;;;;;;;4.78;4.28;;;22.30;99.90;;;;;;5227193;28;20025;-75
2022/08/09 01:56:18;;;;;;;4.95;4.45;;;22.30;99.90;;;;;;5227037;28;20033;-75
2022/08/09 01:58:51;;;;;;;8.02;4.95;;;22.40;99.90;;;;;;5226573;28;20013;-75
2022/08/09 02:01:25;;;;;;;5.63;4.32;;;22.30;99.90;;;;;;5226933;28;20036;-75
2022/08/09 02:03:57;;;;;;;9.35;4.03;;;22.20;99.90;;;;;;5226937;28;20550;-75
2022/08/09 02:09:22;;;;;;;6.07;4.40;;;22.10;99.90;;;;;;5226668;28;20035;-75
2022/08/09 02:11:54;;;;;;;6.40;4.38;;;22.10;99.90;;;;;;5226869;28;20020;-76
2022/08/09 02:14:27;;;;;;;5.20;4.40;;;21.90;99.90;;;;;;5226862;28;20357;-75
2022/08/09 02:16:58;;;;;;;6.32;4.38;;;21.80;99.90;;;;;;5226697;28;20036;-75
2022/08/09 02:19:29;;;;;;;5.25;4.05;;;22.00;99.90;;;;;;5226772;28;20029;-76
2022/08/09 02:22:06;;;;;;;6.70;4.05;;;21.70;99.90;;;;;;5226741;28;20538;-75
2022/08/09 02:24:39;;;;;;;5.93;4.65;;;21.60;99.90;;;;;;5226760;28;20024;-76
2022/08/09 02:27:13;;;;;;;6.75;5.03;;;21.80;99.90;;;;;;5226725;28;20037;-75
2022/08/09 02:29:49;;;;;;;5.07;4.57;;;21.80;99.90;;;;;;5226162;28;20106;-75
2022/08/09 02:32:23;;;;;;;5.82;4.15;;;21.60;99.90;;;;;;5226600;28;20068;-75
2022/08/09 02:34:59;;;;;;;6.95;4.13;;;21.60;99.90;;;;;;5226602;28;20515;-75
2022/08/09 02:37:32;;;;;;;7.13;4.25;;;21.60;99.90;;;;;;5226536;28;20025;-76
2022/08/09 02:40:10;;;;;;;5.32;4.05;;;21.60;99.90;;;;;;5226596;28;20066;-75
2022/08/09 02:42:43;;;;;;;5.85;4.28;;;21.50;99.90;;;;;;5226532;28;20025;-75
2022/08/09 02:45:23;;;;;;;4.82;3.95;;;21.70;99.90;;;;;;5226525;28;20029;-75
2022/08/09 02:47:59;;;;;;;7.57;4.93;;;21.60;99.90;;;;;;5226444;28;20033;-75
2022/08/09 02:50:36;;;;;;;6.15;4.57;;;21.40;99.90;;;;;;5226327;28;20417;-76
2022/08/09 02:53:11;;;;;;;6.72;4.88;;;21.40;99.90;;;;;;5226607;28;20052;-76
2022/08/09 02:55:44;;;;;;;7.95;4.63;;;21.60;99.90;;;;;;5225144;28;20029;-75
2022/08/09 02:58:17;;;;;;;7.63;5.15;;;21.30;99.90;;;;;;5226365;28;20120;-76
2022/08/09 03:00:49;;;;;;;6.50;4.47;;;21.50;99.90;;;;;;5226170;28;20044;-75
2022/08/09 03:03:21;;;;;;;6.15;4.72;;;21.60;99.90;;;;;;5226281;28;20045;-75
2022/08/09 03:05:55;;;;;;;6.05;4.32;;;21.50;99.90;;;;;;5225066;28;20031;-75
2022/08/09 03:08:27;;;;;;;6.00;4.63;;;21.40;99.90;;;;;;5226243;28;20124;-76
2022/08/09 03:11:00;;;;;;;4.88;4.32;;;21.40;99.90;;;;;;5227477;28;20033;-75
2022/08/09 03:13:31;;;;;;;8.32;5.10;;;21.60;99.90;;;;;;5230463;28;20024;-76
2022/08/09 03:16:03;;;;;;;7.18;5.18;;;21.60;99.90;;;;;;5230223;28;20491;-75
2022/08/09 03:18:35;;;;;;;6.35;4.78;;;21.30;99.90;;;;;;5230129;28;20055;-76
2022/08/09 03:21:08;;;;;;;6.07;5.13;;;21.40;99.90;;;;;;5230033;28;20032;-75
2022/08/09 03:23:38;;;;;;;8.43;6.15;;;21.20;99.90;;;;;;5230124;28;20025;-75
2022/08/09 03:26:09;;;;;;;10.18;6.10;;;22.00;99.90;;;;;;5230176;28;20032;-75
2022/08/09 03:28:42;;;;;;;10.25;6.25;;;21.80;99.90;;;;;;5229844;28;20033;-75
2022/08/09 03:31:14;;;;;;;7.53;5.75;;;21.60;99.90;;;;;;5229752;28;20049;-76
2022/08/09 03:33:46;;;;;;;8.27;6.85;;;21.50;99.90;;;;;;5229979;28;20033;-75
2022/08/09 03:36:17;;;;;;;11.60;7.47;;;21.80;99.90;;;;;;5229749;28;20029;-75
2022/08/09 03:38:48;;;;;;;9.63;7.38;;;22.00;99.90;;;;;;5229742;28;20049;-75
2022/08/09 03:41:19;;;;;;;9.93;7.40;;;22.30;99.90;;;;;;5229799;28;20060;-75
2022/08/09 03:43:50;;;;;;;8.20;7.38;;;22.20;99.90;;;;;;5229620;28;20113;-76
2022/08/09 03:46:21;;;;;;;9.40;7.72;;;22.30;99.90;;;;;;5229743;28;20115;-75
2022/08/09 03:48:58;;;;;;;11.27;8.05;;;22.50;99.90;;;;;;5229491;28;20124;-75
2022/08/09 03:51:31;;;;;;;12.68;8.35;;;22.60;99.90;;;;;;5229611;28;20032;-76
2022/08/09 03:54:02;;;;;;;13.02;9.25;;;22.90;99.90;;;;;;5229605;28;20033;-75
2022/08/09 03:56:33;;;;;;;9.85;8.57;;;23.10;99.90;;;;;;5229475;28;20411;-75
2022/08/09 03:59:03;;;;;;;12.82;8.88;;;23.20;99.90;;;;;;5229501;28;20031;-75
2022/08/09 04:01:35;;;;;;;9.40;8.43;;;23.40;99.90;;;;;;5229219;28;20033;-76
2022/08/09 04:04:06;;;;;;;10.38;7.60;;;23.70;99.90;;;;;;5229474;28;20018;-75
2022/08/09 04:06:38;;;;;;;10.63;7.57;;;23.70;99.90;;;;;;5229154;28;20029;-76
2022/08/09 04:09:09;;;;;;;9.75;6.65;;;23.80;99.90;;;;;;5229172;28;20519;-76
2022/08/09 04:12:08;;;;;;;7.10;6.07;;;23.90;99.90;;;;;;5229259;28;20064;-75
2022/08/09 04:14:40;;;;;;;8.85;6.57;;;24.10;99.90;;;;;;5229205;28;20048;-76
2022/08/09 04:17:11;;;;;;;8.95;5.95;;;24.30;99.90;;;;;;5229018;28;20025;-75
2022/08/09 04:19:41;;;;;;;6.45;4.78;;;24.40;99.90;;;;;;5229022;28;20060;-76
2022/08/09 04:22:12;;;;;;;7.50;4.50;;;24.40;99.90;;;;;;5228655;28;20029;-75
2022/08/09 04:24:43;;;;;;;6.85;5.05;;;24.50;99.90;;;;;;5229114;28;20022;-75
2022/08/09 04:27:14;;;;;;;7.53;4.53;;;24.60;99.90;;;;;;5228790;28;20021;-76
2022/08/09 04:29:44;;;;;;;5.90;4.72;;;24.70;99.90;;;;;;5228235;28;20056;-76
2022/08/09 04:32:15;;;;;;;6.35;4.43;;;24.80;99.90;;;;;;5228776;28;20033;-75
2022/08/09 04:34:46;;;;;;;6.90;4.30;;;24.80;99.90;;;;;;5228604;28;20060;-75
2022/08/09 04:37:17;;;;;;;6.90;4.35;;;24.90;99.90;;;;;;5228639;28;20052;-75
2022/08/09 04:39:48;;;;;;;6.45;4.32;;;25.00;99.90;;;;;;5228547;28;20021;-75
2022/08/09 04:42:19;;;;;;;6.80;4.25;;;25.00;99.90;;;;;;5228528;28;20025;-75
2022/08/09 04:44:50;;;;;;;5.85;3.72;;;25.10;99.90;;;;;;5228542;28;20102;-76
2022/08/09 04:47:22;;;;;;;4.32;3.58;;;25.30;99.90;;;;;;5228400;28;20508;-75
2022/08/09 04:49:54;;;;;;;5.38;4.22;;;25.30;99.90;;;;;;5228211;28;20037;-76
2022/08/09 04:52:27;;;;;;;5.40;3.33;;;25.20;99.90;;;;;;5228366;28;20028;-76
2022/08/09 04:55:00;;;;;;;9.75;3.90;;;25.30;99.90;;;;;;5228395;28;20116;-75
2022/08/09 04:57:30;;;;;;;4.00;3.55;;;25.40;99.90;;;;;;5228239;28;20074;-75
2022/08/09 05:00:04;;;;;;;6.35;3.42;;;25.50;99.90;;;;;;5227951;28;20033;-75
2022/08/09 05:02:34;;;;;;;5.75;3.30;;;25.60;99.90;;;;;;5228208;28;20104;-76
2022/08/09 05:05:05;;;;;;;6.78;3.58;;;25.40;99.90;;;;;;5228217;28;20162;-75
2022/08/09 05:07:36;;;;;;;7.00;3.25;;;25.60;99.90;;;;;;5228174;28;20024;-75
2022/08/09 05:10:08;;;;;;;5.90;3.63;;;25.60;99.90;;;;;;5227754;28;20037;-75
2022/08/09 05:12:38;;;;;;;6.95;3.65;;;25.60;99.90;;;;;;5228087;28;20452;-75
2022/08/09 05:15:09;;;;;;;4.53;2.85;;;25.60;99.90;;;;;;5227882;28;20037;-75
2022/08/09 05:17:40;;;;;;;4.03;3.05;;;25.90;99.90;;;;;;5227949;28;20021;-76
2022/08/09 05:20:11;;;;;;;3.63;2.60;;;25.90;99.90;;;;;;5227956;28;20028;-75
2022/08/09 05:22:42;;;;;;;4.57;3.00;;;25.80;99.90;;;;;;5227673;28;20498;-75
2022/08/09 05:25:14;;;;;;;4.82;3.10;;;26.10;99.90;;;;;;5227641;28;20025;-75
2022/08/09 05:27:46;;;;;;;4.93;2.95;;;26.20;99.90;;;;;;5227759;28;20028;-75
2022/08/09 05:30:17;;;;;;;3.88;2.92;;;26.20;99.90;;;;;;5227093;28;20695;-76
2022/08/09 05:32:47;;;;;;;5.20;2.67;;;26.30;99.90;;;;;;5227370;28;20036;-75
2022/08/09 05:35:19;;;;;;;3.80;2.42;;;26.30;99.90;;;;;;5227299;28;20024;-75
2022/08/09 05:37:50;;;;;;;4.40;2.88;;;26.40;99.90;;;;;;5226259;28;20476;-76
2022/08/09 05:40:20;;;;;;;4.65;2.63;;;26.60;99.90;;;;;;5227454;28;20031;-75
2022/08/09 05:42:51;;;;;;;3.40;2.30;;;26.60;99.90;;;;;;5227526;28;20062;-75
2022/08/09 05:45:22;;;;;;;5.68;2.47;;;26.70;99.90;;;;;;5227558;28;20036;-76
2022/08/09 05:47:53;;;;;;;3.85;2.20;;;26.80;99.90;;;;;;5227419;28;20049;-75
2022/08/09 05:50:24;;;;;;;3.55;2.30;;;26.80;99.90;;;;;;5227191;28;20048;-75
2022/08/09 05:52:55;;;;;;;2.65;2.17;;;26.90;99.90;;;;;;5227172;28;20025;-75
2022/08/09 05:55:26;;;;;;;2.80;2.15;;;27.00;99.90;;;;;;5227224;28;20380;-75
2022/08/09 05:57:57;;;;;;;5.13;2.40;;;27.00;99.90;;;;;;5226994;28;20112;-75
2022/08/09 06:00:29;;;;;;;4.63;2.15;;;27.00;99.90;;;;;;5226813;28;20124;-75
2022/08/09 06:03:02;;;;;;;3.42;2.05;;;27.20;99.90;;;;;;5227009;28;20055;-76
2022/08/09 06:05:35;;;;;;;5.82;2.47;;;27.20;99.90;;;;;;5225789;28;20552;-76
2022/08/09 06:08:05;;;;;;;3.67;2.20;;;27.20;99.90;;;;;;5226965;28;20044;-76
2022/08/09 06:10:36;;;;;;;4.05;1.80;;;27.40;99.90;;;;;;5226976;28;20102;-76
2022/08/09 06:13:11;;;;;;;3.95;1.90;;;27.40;99.90;;;;;;5226823;28;20028;-75
2022/08/09 06:15:42;;;;;;;3.17;1.80;;;27.40;99.90;;;;;;5226781;28;20118;-73
2022/08/09 06:18:13;;;;;;;2.53;1.75;;;27.50;99.90;;;;;;5226899;28;20079;-75
2022/08/09 06:20:44;;;;;;;3.53;1.83;;;27.60;99.90;;;;;;5226914;28;20036;-76
2022/08/09 06:23:15;;;;;;;3.42;1.70;;;27.60;99.90;;;;;;5226780;28;20079;-75
2022/08/09 06:25:46;;;;;;;1.83;1.33;;;27.60;99.90;;;;;;5226771;28;20039;-75
2022/08/09 06:28:16;;;;;;;1.83;1.58;;;27.60;99.90;;;;;;5226599;28;20044;-75
2022/08/09 06:30:47;;;;;;;1.52;1.30;;;28.10;99.90;;;;;;5226277;28;20118;-76
2022/08/09 06:33:18;;;;;;;4.63;1.60;;;28.00;99.90;;;;;;5226830;28;20039;-75
2022/08/09 06:35:49;;;;;;;3.42;1.50;;;28.10;99.90;;;;;;5226835;28;20037;-75
2022/08/09 06:38:20;;;;;;;4.35;1.67;;;28.00;99.90;;;;;;5226642;28;20025;-75
2022/08/09 06:40:50;;;;;;;2.40;1.33;;;27.90;99.90;;;;;;5226706;28;20033;-76
2022/08/09 06:43:21;;;;;;;2.78;1.80;;;28.10;99.90;;;;;;5226657;28;20020;-76
2022/08/09 06:45:52;;;;;;;2.25;1.50;;;28.00;99.90;;;;;;5229599;28;20035;-75
2022/08/09 06:48:23;;;;;;;3.22;1.30;;;28.10;99.90;;;;;;5230843;28;20433;-75
2022/08/09 06:50:54;;;;;;;2.75;1.67;;;28.00;99.90;;;;;;5230917;28;20029;-76
2022/08/09 06:53:25;;;;;;;3.15;1.40;;;28.20;99.90;;;;;;5230793;28;20024;-76
2022/08/09 06:55:56;;;;;;;3.15;1.52;;;28.20;99.90;;;;;;5230923;28;20099;-76
2022/08/09 06:58:26;;;;;;;3.35;1.10;;;28.30;99.90;;;;;;5230839;28;20035;-76
2022/08/09 07:00:57;;;;;;;3.47;1.33;;;28.30;99.90;;;;;;5230520;28;20028;-76
2022/08/09 07:03:29;;;;;;;1.85;1.25;;;28.50;99.90;;;;;;5230826;28;20025;-75
2022/08/09 07:06:01;;;;;;;2.58;1.20;;;28.40;99.90;;;;;;5230424;28;20028;-76
2022/08/09 07:08:33;;;;;;;3.65;1.50;;;28.60;99.90;;;;;;5230457;28;20127;-75
2022/08/09 07:11:05;;;;;;;4.13;1.75;;;28.70;99.90;;;;;;5230430;28;20024;-76
2022/08/09 07:13:36;;;;;;;3.00;1.35;;;28.60;99.90;;;;;;5230647;28;20108;-75
2022/08/09 07:16:07;;;;;;;2.88;1.40;;;28.60;99.90;;;;;;5230612;28;20519;-76
2022/08/09 07:18:38;;;;;;;5.88;1.60;;;28.60;99.90;;;;;;5230398;28;20100;-75
2022/08/09 07:21:09;;;;;;;5.45;1.90;;;28.50;99.90;;;;;;5228914;28;20056;-77
2022/08/09 07:23:41;;;;;;;4.28;1.80;;;28.60;99.90;;;;;;5230442;28;20421;-76
2022/08/09 07:26:12;;;;;;;4.22;1.50;;;28.80;99.90;;;;;;5230341;28;20017;-76
2022/08/09 07:28:44;;;;;;;6.03;1.83;;;28.90;99.90;;;;;;5230167;28;20087;-76
2022/08/09 07:31:14;;;;;;;3.30;1.48;;;28.90;99.90;;;;;;5229844;28;20059;-76
2022/08/09 07:33:45;;;;;;;3.40;1.75;;;29.10;99.90;;;;;;5230299;28;20104;-76
2022/08/09 07:36:16;;;;;;;4.75;1.88;;;29.00;99.90;;;;;;5230382;28;20035;-76
2022/08/09 07:38:47;;;;;;;5.20;1.92;;;29.00;99.90;;;;;;5229103;28;20112;-76
2022/08/09 07:41:18;;;;;;;3.58;1.40;;;28.80;99.90;;;;;;5230154;28;20364;-76
2022/08/09 07:43:49;;;;;;;5.40;1.80;;;29.10;99.90;;;;;;5230070;28;20028;-76
2022/08/09 07:46:20;;;;;;;2.58;1.42;;;29.00;99.90;;;;;;5229880;28;20021;-76
2022/08/09 07:48:50;;;;;;;2.33;1.52;;;29.20;99.90;;;;;;5229802;28;20044;-76
2022/08/09 07:51:22;;;;;;;6.10;2.13;;;29.30;99.90;;;;;;5229879;28;20021;-76
2022/08/09 07:53:53;;;;;;;2.00;1.25;;;29.20;99.90;;;;;;5229882;28;20028;-76
2022/08/09 07:56:26;;;;;;;3.10;1.60;;;29.30;99.90;;;;;;5229100;28;20070;-76
2022/08/09 07:58:57;;;;;;;8.85;1.98;;;29.40;99.90;;;;;;5229672;28;22212;-76
2022/08/09 08:01:28;;;;;;;2.42;1.60;;;29.50;99.90;;;;;;5229658;28;20039;-76
2022/08/09 08:03:59;;;;;;;2.90;1.88;;;29.60;99.90;;;;;;5229337;28;20103;-76
2022/08/09 08:06:30;;;;;;;2.20;1.48;;;29.40;99.90;;;;;;5229288;28;20037;-76
2022/08/09 08:09:01;;;;;;;2.97;1.40;;;29.50;99.90;;;;;;5229317;28;20033;-76
2022/08/09 08:11:32;;;;;;;3.38;1.33;;;29.50;99.90;;;;;;5229508;28;20029;-76
2022/08/09 08:14:03;;;;;;;2.33;1.45;;;29.70;99.90;;;;;;5229292;28;20103;-76
2022/08/09 08:16:34;;;;;;;2.50;1.00;;;29.60;99.90;;;;;;5229354;28;20021;-76
2022/08/09 08:19:04;;;;;;;2.92;1.42;;;29.40;99.90;;;;;;5229318;28;20074;-76
2022/08/09 08:21:35;;;;;;;3.35;1.30;;;29.50;99.90;;;;;;5229178;28;20087;-76
2022/08/09 08:24:06;;;;;;;3.25;1.17;;;29.60;99.90;;;;;;5229038;28;20013;-76
2022/08/09 08:26:37;;;;;;;3.65;1.35;;;29.90;99.90;;;;;;5228935;28;20025;-76
2022/08/09 08:29:12;;;;;;;3.63;1.40;;;29.90;99.90;;;;;;5228729;28;20056;-74
2022/08/09 08:31:49;;;;;;;5.88;1.33;;;29.90;99.90;;;;;;5228672;28;20061;-76
2022/08/09 08:34:20;;;;;;;2.17;1.13;;;29.90;99.90;;;;;;5228786;28;20069;-74
2022/08/09 08:36:51;;;;;;;6.28;2.95;;;30.20;99.90;;;;;;5228594;28;20029;-76
2022/08/09 08:39:22;;;;;;;1.95;1.30;;;30.20;99.90;;;;;;5228572;28;20067;-76
2022/08/09 08:41:53;;;;;;;3.45;1.60;;;30.20;99.90;;;;;;5228460;28;20033;-73
2022/08/09 08:44:27;;;;;;;2.28;0.80;;;30.20;99.90;;;;;;5228604;28;20024;-73
2022/08/09 08:46:58;;;;;;;1.50;1.05;;;30.00;99.90;;;;;;5228555;28;20028;-73
2022/08/09 08:49:32;;;;;;;2.50;1.15;;;30.00;99.90;;;;;;5228370;28;20155;-73
2022/08/09 08:52:04;;;;;;;1.83;1.05;;;30.20;99.90;;;;;;5227079;28;20021;-73
2022/08/09 08:54:35;;;;;;;1.60;0.90;;;30.10;99.90;;;;;;5228207;28;20016;-73
2022/08/09 08:57:07;;;;;;;2.00;1.02;;;30.00;99.90;;;;;;5226886;28;20025;-73
2022/08/09 08:59:38;;;;;;;1.40;0.85;;;30.40;99.90;;;;;;5227940;28;20064;-73
2022/08/09 09:02:25;;;;;;;3.22;1.17;;;30.20;99.90;;;;;;5228234;28;20048;-73
2022/08/09 09:04:58;;;;;;;3.63;1.05;;;30.20;99.90;;;;;;5228129;28;20435;-73
2022/08/09 09:07:32;;;;;;;4.53;0.90;;;30.20;99.90;;;;;;5220193;28;20074;-76
2022/08/09 09:10:07;;;;;;;3.88;1.08;;;30.60;99.90;;;;;;5206483;28;20041;-74
2022/08/09 09:12:39;;;;;;;0.90;0.75;;;30.80;99.90;;;;;;5207479;28;20017;-74
2022/08/09 09:15:10;;;;;;;1.73;0.93;;;31.00;99.90;;;;;;5207270;28;20033;-74
2022/08/09 09:17:41;;;;;;;2.67;0.90;;;30.90;99.90;;;;;;5207191;28;20026;-74
2022/08/09 09:20:13;;;;;;;4.85;1.10;;;30.40;99.90;;;;;;5207093;28;20041;-74
2022/08/09 09:22:55;;;;;;;4.05;0.98;;;30.60;99.90;;;;;;5207170;28;20022;-73
2022/08/09 09:25:41;;;;;;;2.33;0.80;;;30.90;99.90;;;;;;5206976;28;20591;-74
2022/08/09 09:28:13;;;;;;;1.77;0.77;;;31.00;99.90;;;;;;5206943;28;20026;-73
2022/08/09 09:30:56;;;;;;;1.67;0.80;;;31.10;99.90;;;;;;5206661;28;20092;-74
2022/08/09 09:33:33;;;;;;;1.58;0.70;;;31.00;99.90;;;;;;5206877;28;20465;-74
2022/08/09 09:36:08;;;;;;;2.33;0.80;;;30.70;99.90;;;;;;5206913;28;20385;-74
2022/08/09 09:38:44;;;;;;;1.73;0.90;;;30.40;99.90;;;;;;5206981;28;20033;-75
2022/08/09 09:41:26;;;;;;;2.22;1.02;;;31.00;99.90;;;;;;5206896;28;20436;-74
2022/08/09 09:44:00;;;;;;;1.02;0.88;;;30.50;99.90;;;;;;5206672;28;20380;-75
2022/08/09 09:46:36;;;;;;;3.03;0.93;;;30.80;99.90;;;;;;5206623;28;20036;-74
2022/08/09 09:49:12;;;;;;;1.67;0.75;;;31.00;99.90;;;;;;5223208;28;20029;-75
2022/08/09 09:51:43;;;;;;;3.83;1.05;;;30.80;99.90;;;;;;5227072;28;20029;-75
2022/08/09 09:54:20;;;;;;;1.20;0.70;;;31.10;99.90;;;;;;5210323;28;20037;-75
2022/08/09 09:56:53;;;;;;;0.85;0.70;;;30.80;99.90;;;;;;5206486;28;20105;-75
2022/08/09 09:59:33;;;;;;;3.15;0.90;;;31.20;99.90;;;;;;5206383;28;20533;-75
2022/08/09 10:02:05;;;;;;;1.30;0.90;;;31.10;99.90;;;;;;5206446;28;20040;-75
2022/08/09 10:04:36;;;;;;;1.30;0.57;;;30.90;99.90;;;;;;5205032;28;20029;-75
2022/08/09 10:07:25;;;;;;;2.58;1.15;;;31.00;99.90;;;;;;5206406;28;20022;-75
2022/08/09 10:09:56;;;;;;;;;;;30.90;99.90;;;;;;5206631;28;20041;-74
2022/08/09 10:12:38;;;;;;;2.75;1.15;;;31.00;99.90;;;;;;5206281;28;19912;-75
2022/08/09 10:15:14;;;;;;;2.28;0.85;;;31.00;99.90;;;;;;5206185;28;20028;-75
2022/08/09 10:17:49;;;;;;;2.55;1.45;;;31.20;99.90;;;;;;5205977;28;20029;-74
2022/08/09 10:20:24;;;;;;;4.28;0.80;;;31.10;99.90;;;;;;5205893;28;20025;-75
2022/08/09 10:22:59;;;;;;;1.63;1.05;;;31.30;99.90;;;;;;5206275;28;20033;-75
2022/08/09 10:25:30;;;;;;;1.63;0.80;;;31.40;99.90;;;;;;5206107;28;20029;-75
2022/08/09 10:28:01;;;;;;;2.95;0.77;;;31.10;99.90;;;;;;5205951;28;20034;-75
2022/08/09 10:30:32;;;;;;;2.35;0.70;;;31.20;99.90;;;;;;5206115;28;20076;-75
2022/08/09 10:33:03;;;;;;;2.00;0.85;;;31.50;99.90;;;;;;5205943;28;20033;-75
2022/08/09 10:35:34;;;;;;;1.63;1.05;;;31.40;99.90;;;;;;5205987;28;20021;-75
2022/08/09 10:38:06;;;;;;;2.22;0.68;;;31.00;99.90;;;;;;5205949;28;20101;-74
2022/08/09 10:40:39;;;;;;;1.40;0.90;;;31.00;99.90;;;;;;5205810;28;20061;-75
2022/08/09 10:43:10;;;;;;;3.00;1.20;;;31.30;99.90;;;;;;5205864;28;20057;-75
2022/08/09 10:45:44;;;;;;;1.10;0.77;;;31.70;99.90;;;;;;5205934;28;20030;-75
2022/08/09 10:48:48;;;;;;;2.63;1.10;;;31.40;99.90;;;;;;5205662;28;20036;-75
2022/08/09 10:51:40;;;;;;;2.70;0.90;;;31.90;99.90;;;;;;5205778;28;20086;-75
2022/08/09 10:54:13;;;;;;;1.58;0.80;;;31.60;99.90;;;;;;5205928;28;20021;-75
2022/08/09 10:56:43;;;;;;;5.90;1.40;;;31.90;99.90;;;;;;5204504;28;20088;-75
2022/08/09 10:59:29;;;;;;;3.28;0.88;;;31.30;99.90;;;;;;5205541;28;20026;-75
2022/08/09 11:02:00;;;;;;;1.95;0.80;;;31.40;99.90;;;;;;5206041;28;20034;-75
2022/08/09 11:04:31;;;;;;;1.90;0.75;;;31.40;99.90;;;;;;5205733;28;20029;-75
2022/08/09 11:07:02;;;;;;;3.70;0.80;;;31.60;99.90;;;;;;5205660;28;20113;-75
2022/08/09 11:09:41;;;;;;;1.83;0.90;;;32.00;99.90;;;;;;5205612;28;20124;-75
2022/08/09 11:12:26;;;;;;;4.95;1.25;;;31.30;99.90;;;;;;5205646;28;20057;-75
2022/08/09 11:15:17;;;;;;;2.55;1.00;;;31.60;99.90;;;;;;5205782;28;20017;-75
2022/08/09 11:17:50;;;;;;;3.38;0.77;;;31.60;99.90;;;;;;5205458;28;20053;-74
2022/08/09 11:20:39;;;;;;;1.90;0.77;;;31.30;99.90;;;;;;5205598;28;20036;-75
2022/08/09 11:23:10;;;;;;;2.00;0.70;;;31.20;99.90;;;;;;5205324;28;20024;-75
2022/08/09 11:25:44;;;;;;;0.95;0.65;;;31.10;99.90;;;;;;5203383;28;20512;-75
2022/08/09 11:28:36;;;;;;;1.65;1.00;;;31.60;99.90;;;;;;5205339;28;20017;-75
2022/08/09 11:31:46;;;;;;;1.23;0.50;;;31.60;99.90;;;;;;5205318;28;20501;-75
2022/08/09 11:34:41;;;;;;;2.47;0.98;;;31.00;99.90;;;;;;5209305;28;20148;-75
2022/08/09 11:37:26;;;;;;;1.70;0.80;;;31.40;99.90;;;;;;5203165;28;20047;-74
2022/08/09 11:40:08;;;;;;;2.55;0.75;;;31.60;99.90;;;;;;5209428;28;20013;-75
2022/08/09 11:42:50;;;;;;;3.10;1.63;;;31.20;99.90;;;;;;5209098;28;20461;-75
2022/08/09 11:45:29;;;;;;;2.83;1.00;;;31.00;99.90;;;;;;5209071;28;20539;-75
2022/08/09 11:48:14;;;;;;;2.08;1.23;;;31.00;99.90;;;;;;5209040;28;20018;-75
2022/08/09 11:51:06;;;;;;;3.45;1.00;;;31.00;99.90;;;;;;5209105;28;20141;-74
2022/08/09 11:53:38;;;;;;;3.47;1.23;;;30.90;99.90;;;;;;5208887;28;20025;-75
2022/08/09 11:56:14;;;;;;;4.25;1.08;;;31.70;99.90;;;;;;5208903;28;20421;-75
2022/08/09 11:58:47;;;;;;;2.38;1.23;;;31.50;99.90;;;;;;5207328;28;20029;-75
2022/08/09 12:01:29;;;;;;;2.67;1.23;;;31.30;99.90;;;;;;5208753;28;20033;-75
2022/08/09 12:04:02;;;;;;;2.95;1.70;;;31.20;99.90;;;;;;5208883;28;20037;-75
2022/08/09 12:06:34;;;;;;;2.33;0.98;;;31.30;99.90;;;;;;5208708;28;20496;-75
2022/08/09 12:09:10;;;;;;;2.08;1.10;;;31.40;99.90;;;;;;5208606;28;20040;-75
2022/08/09 12:11:40;;;;;;;1.52;0.90;;;31.20;99.90;;;;;;5208439;28;20070;-75
2022/08/09 12:14:11;;;;;;;1.38;1.00;;;31.30;99.90;;;;;;5208658;28;20029;-75
2022/08/09 12:16:42;;;;;;;3.05;1.13;;;31.30;99.90;;;;;;5208490;28;20327;-75
2022/08/09 12:19:13;;;;;;;2.70;1.38;;;31.60;99.90;;;;;;5208593;28;20493;-75
2022/08/09 12:21:50;;;;;;;3.70;0.90;;;31.70;99.90;;;;;;5208362;28;20025;-75
2022/08/09 12:24:22;;;;;;;3.33;1.42;;;31.30;99.90;;;;;;5208632;28;20022;-75
2022/08/09 12:26:55;;;;;;;3.38;1.35;;;31.40;99.90;;;;;;5208274;28;20032;-74
2022/08/09 12:29:30;;;;;;;2.83;1.10;;;31.30;99.90;;;;;;5207971;28;20566;-75
2022/08/09 12:32:04;;;;;;;2.28;1.20;;;31.60;99.90;;;;;;5208242;28;20513;-75
2022/08/09 12:34:40;;;;;;;5.07;1.52;;;31.00;99.90;;;;;;5208263;28;20385;-75
2022/08/09 12:37:11;;;;;;;1.73;1.10;;;31.30;99.90;;;;;;5208220;28;20021;-75
2022/08/09 12:39:42;;;;;;;2.17;1.55;;;31.60;99.90;;;;;;5208038;28;20384;-75
2022/08/09 12:42:15;;;;;;;1.70;1.15;;;31.60;99.90;;;;;;5207856;28;20101;-75
2022/08/09 12:44:46;;;;;;;9.18;1.70;;;31.20;99.90;;;;;;5208038;28;20049;-75
2022/08/09 12:47:17;;;;;;;1.25;1.00;;;31.00;99.90;;;;;;5207873;28;20057;-75
2022/08/09 12:50:15;;;;;;;2.22;1.00;;;31.00;99.90;;;;;;5207644;28;20052;-75
2022/08/09 12:52:41;;;;;;;2.90;1.38;;;30.70;99.90;;;;;;5207762;28;20033;-75
2022/08/09 12:55:26;;;;;;;2.33;1.23;;;31.10;99.90;;;;;;5207806;28;20416;-75
2022/08/09 12:57:58;;;;;;;3.28;1.38;;;31.30;99.90;;;;;;5207685;28;20112;-75
2022/08/09 13:00:33;;;;;;;3.42;1.30;;;31.10;99.90;;;;;;5207351;28;20476;-75
2022/08/09 13:03:05;;;;;;;3.08;1.17;;;31.10;99.90;;;;;;5207691;28;20103;-75
2022/08/09 13:05:40;;;;;;;2.90;1.30;;;31.00;99.90;;;;;;5207609;28;20021;-75
2022/08/09 13:08:14;;;;;;;2.95;1.08;;;31.50;99.90;;;;;;5207509;28;20032;-75
2022/08/09 13:10:55;;;;;;;1.98;0.80;;;30.90;99.90;;;;;;5207195;28;20536;-75
2022/08/09 13:13:41;;;;;;;3.28;1.20;;;30.60;99.90;;;;;;5207537;28;20236;-75
2022/08/09 13:16:15;;;;;;;3.20;1.10;;;31.00;99.90;;;;;;5207392;28;20358;-75
2022/08/09 13:18:48;;;;;;;2.88;1.20;;;31.00;99.90;;;;;;5207452;28;20025;-75
2022/08/09 13:21:25;;;;;;;3.00;1.13;;;31.00;99.90;;;;;;5207220;28;20028;-75
2022/08/09 13:24:08;;;;;;;3.50;1.20;;;31.30;99.90;;;;;;5207090;28;20112;-75
2022/08/09 13:26:41;;;;;;;3.47;1.00;;;31.50;99.90;;;;;;5207126;28;20024;-75